Time;durP1;ratioP1;P1;durP2;ratioP2;P2;SDS_P1;SDS_P2;PMS_P1;PMS_P2;Temp;Humidity;BMP_temperature;BMP_pressure;BME280_temperature;BME280_humidity;BME280_pressure;Samples;Min_cycle;Max_cycle;Signal;HPM_P1;HPM_P2
2022/07/15 00:00:22;;;;;;;;;;;;;;;23.20;44.76;100672.91;5072454;28;1965;-36
2022/07/15 00:02:48;;;;;;;;;;;;;;;23.78;40.53;100677.75;5067177;28;1104;-35
2022/07/15 00:05:13;;;;;;;;;;;;;;;23.92;41.25;100676.28;5074668;28;992;-35
2022/07/15 00:07:38;;;;;;;;;;;;;;;24.66;39.05;100669.34;5074222;28;1225;-35
2022/07/15 00:10:20;;;;;;;;;;;;;;;24.00;39.32;100680.84;5075167;28;1079;-36
2022/07/15 00:12:53;;;;;;;;;;;;;;;23.23;42.32;100670.75;5064836;28;984;-35
2022/07/15 00:15:19;;;;;;;;;;;;;;;23.88;41.81;100667.72;5067115;28;944;-36
2022/07/15 00:17:45;;;;;;;;;;;;;;;24.15;39.78;100664.94;5065721;28;1012;-36
2022/07/15 00:20:10;;;;;;;;;;;;;;;24.08;41.92;100668.28;5070825;28;1943;-36
2022/07/15 00:22:36;;;;;;;;;;;;;;;24.79;38.06;100666.19;5070754;28;1019;-34
2022/07/15 00:25:01;;;;;;;;;;;;;;;24.32;37.04;100663.97;5071396;28;1063;-35
2022/07/15 00:27:27;;;;;;;;;;;;;;;23.34;44.29;100666.09;5073007;28;921;-36
2022/07/15 00:29:52;;;;;;;;;;;;;;;23.63;40.81;100666.78;5059873;28;1135;-35
2022/07/15 00:32:17;;;;;;;;;;;;;;;23.73;42.01;100662.13;5065005;28;1154;-35
2022/07/15 00:34:42;;;;;;;;;;;;;;;24.41;38.89;100670.19;5072957;28;1055;-36
2022/07/15 00:37:08;;;;;;;;;;;;;;;23.98;39.46;100667.56;5070978;28;1209;-35
2022/07/15 00:39:33;;;;;;;;;;;;;;;23.18;43.51;100653.44;5070433;28;886;-34
2022/07/15 00:41:59;;;;;;;;;;;;;;;23.76;40.33;100652.88;5073912;28;1910;-34
2022/07/15 00:44:25;;;;;;;;;;;;;;;24.01;40.31;100659.19;5058040;28;1214;-35
2022/07/15 00:46:51;;;;;;;;;;;;;;;24.28;41.61;100659.94;5059722;28;1242;-34
2022/07/15 00:49:16;;;;;;;;;;;;;;;23.72;39.78;100652.38;5068212;28;1250;-36
2022/07/15 00:51:45;;;;;;;;;;;;;;;23.29;42.13;100650.47;5060540;28;906;-34
2022/07/15 00:54:11;;;;;;;;;;;;;;;23.63;43.61;100645.28;5064327;28;997;-35
2022/07/15 00:56:40;;;;;;;;;;;;;;;24.23;39.32;100648.00;5068017;28;1225;-35
2022/07/15 00:59:05;;;;;;;;;;;;;;;24.17;40.73;100641.44;5072342;28;1008;-35
2022/07/15 01:01:31;;;;;;;;;;;;;;;23.34;42.69;100637.41;5070772;28;2233;-34
2022/07/15 01:03:56;;;;;;;;;;;;;;;23.55;41.16;100632.69;5065731;28;970;-33
2022/07/15 01:06:21;;;;;;;;;;;;;;;23.64;42.88;100637.06;5071543;28;1207;-35
2022/07/15 01:08:46;;;;;;;;;;;;;;;24.38;38.75;100640.13;5077528;28;1067;-34
2022/07/15 01:11:13;;;;;;;;;;;;;;;23.93;39.16;100637.66;5073017;28;957;-36
2022/07/15 01:13:38;;;;;;;;;;;;;;;23.23;42.62;100635.88;5068155;28;1099;-35
2022/07/15 01:16:04;;;;;;;;;;;;;;;23.66;40.20;100632.38;5068481;28;862;-36
2022/07/15 01:18:29;;;;;;;;;;;;;;;23.83;40.38;100633.28;5072190;28;1004;-35
2022/07/15 01:20:54;;;;;;;;;;;;;;;24.28;41.25;100629.53;5069256;28;1902;-34
2022/07/15 01:23:20;;;;;;;;;;;;;;;23.63;39.97;100631.88;5064608;28;1175;-34
2022/07/15 01:25:45;;;;;;;;;;;;;;;23.27;41.92;100628.34;5061270;28;1298;-32
2022/07/15 01:28:11;;;;;;;;;;;;;;;23.79;42.98;100634.59;5061925;28;1266;-34
2022/07/15 01:30:37;;;;;;;;;;;;;;;24.22;39.50;100631.03;5069113;28;1302;-33
2022/07/15 01:33:02;;;;;;;;;;;;;;;24.44;38.48;100626.03;5065073;28;1013;-32
2022/07/15 01:35:28;;;;;;;;;;;;;;;23.33;42.70;100624.16;5069089;28;1048;-33
2022/07/15 01:37:53;;;;;;;;;;;;;;;23.65;40.46;100624.50;5074798;28;1185;-43
2022/07/15 01:40:19;;;;;;;;;;;;;;;23.97;41.43;100629.09;5067892;28;1898;-44
2022/07/15 01:42:44;;;;;;;;;;;;;;;24.63;38.48;100630.22;5064882;28;1016;-44
2022/07/15 01:45:09;;;;;;;;;;;;;;;24.30;38.19;100625.69;5063004;28;1388;-42
2022/07/15 01:47:41;;;;;;;;;;;;;;;23.29;44.12;100626.31;5063278;28;1091;-44
2022/07/15 01:50:08;;;;;;;;;;;;;;;24.03;39.41;100624.94;5077444;28;1007;-44
2022/07/15 01:52:33;;;;;;;;;;;;;;;24.50;39.74;100616.44;5076369;28;883;-44
2022/07/15 01:54:58;;;;;;;;;;;;;;;24.82;40.54;100614.72;5071976;28;983;-41
2022/07/15 01:57:24;;;;;;;;;;;;;;;24.07;39.01;100612.84;5072221;28;1036;-44
2022/07/15 01:59:49;;;;;;;;;;;;;;;23.85;40.18;100614.31;5068972;28;1964;-44
2022/07/15 02:02:14;;;;;;;;;;;;;;;24.39;41.30;100609.56;5073045;28;1036;-44
2022/07/15 02:04:40;;;;;;;;;;;;;;;24.01;39.34;100618.88;5063683;28;1119;-41
2022/07/15 02:07:05;;;;;;;;;;;;;;;24.03;40.53;100622.25;5074071;28;1058;-40
2022/07/15 02:09:30;;;;;;;;;;;;;;;24.06;42.41;100616.53;5072676;28;1206;-40
2022/07/15 02:11:56;;;;;;;;;;;;;;;23.72;39.98;100620.16;5064349;28;1131;-37
2022/07/15 02:14:21;;;;;;;;;;;;;;;23.91;40.65;100619.03;5075574;28;1413;-43
2022/07/15 02:16:46;;;;;;;;;;;;;;;24.30;41.71;100612.25;5060306;28;1012;-36
2022/07/15 02:19:12;;;;;;;;;;;;;;;23.83;39.45;100614.47;5063773;28;1325;-35
2022/07/15 02:21:37;;;;;;;;;;;;;;;23.95;39.46;100620.41;5062531;28;1971;-34
2022/07/15 02:24:03;;;;;;;;;;;;;;;24.25;40.92;100619.09;5068374;28;996;-34
2022/07/15 02:26:28;;;;;;;;;;;;;;;23.71;39.08;100624.69;5061797;28;1040;-34
2022/07/15 02:28:54;;;;;;;;;;;;;;;23.70;39.44;100624.84;5067998;28;988;-34
2022/07/15 02:31:19;;;;;;;;;;;;;;;24.01;41.04;100616.19;5064988;28;1019;-35
2022/07/15 02:33:44;;;;;;;;;;;;;;;23.70;38.95;100622.16;5059307;28;1175;-33
2022/07/15 02:36:10;;;;;;;;;;;;;;;23.63;39.89;100618.44;5075200;28;980;-35
2022/07/15 02:38:35;;;;;;;;;;;;;;;23.92;41.51;100614.50;5065783;28;1067;-37
2022/07/15 02:41:02;;;;;;;;;;;;;;;24.58;37.62;100617.28;5061643;28;1960;-36
2022/07/15 02:43:28;;;;;;;;;;;;;;;24.39;36.48;100615.75;5061732;28;1407;-35
2022/07/15 02:45:53;;;;;;;;;;;;;;;23.35;41.68;100614.97;5063671;28;965;-37
2022/07/15 02:48:18;;;;;;;;;;;;;;;24.11;38.05;100621.41;5064118;28;1043;-38
2022/07/15 02:50:44;;;;;;;;;;;;;;;24.28;35.95;100614.25;5066847;28;1182;-36
2022/07/15 02:53:10;;;;;;;;;;;;;;;23.46;41.86;100623.75;5065318;28;878;-37
2022/07/15 02:55:35;;;;;;;;;;;;;;;24.14;38.46;100625.63;5071485;28;1241;-37
2022/07/15 02:58:02;;;;;;;;;;;;;;;24.15;36.26;100613.88;5062270;28;1100;-35
2022/07/15 03:00:27;;;;;;;;;;;;;;;23.33;40.75;100621.47;5057638;28;1902;-35
2022/07/15 03:02:52;;;;;;;;;;;;;;;23.70;38.40;100625.69;5023438;28;1217499;-35
2022/07/15 03:05:17;;;;;;;;;;;;;;;24.17;38.36;100620.78;5059971;28;1434;-35
2022/07/15 03:07:43;;;;;;;;;;;;;;;24.32;39.05;100615.56;5058325;28;996;-35
2022/07/15 03:10:08;;;;;;;;;;;;;;;23.88;39.75;100615.81;5063582;28;1147;-35
2022/07/15 03:12:34;;;;;;;;;;;;;;;24.01;38.50;100621.56;5072416;28;988;-38
2022/07/15 03:14:59;;;;;;;;;;;;;;;24.19;39.59;100613.38;5064890;28;1234;-37
2022/07/15 03:17:24;;;;;;;;;;;;;;;24.85;36.36;100613.53;5067215;28;1037;-39
2022/07/15 03:19:50;;;;;;;;;;;;;;;23.95;35.91;100612.34;5072216;28;1979;-38
2022/07/15 03:22:15;;;;;;;;;;;;;;;23.62;39.86;100614.94;5074555;28;1063;-38
2022/07/15 03:24:40;;;;;;;;;;;;;;;24.53;37.94;100616.94;5073591;28;1214;-38
2022/07/15 03:27:06;;;;;;;;;;;;;;;24.51;37.95;100615.41;5063188;28;1170;-38
2022/07/15 03:29:31;;;;;;;;;;;;;;;24.73;36.65;100615.72;5067709;28;1126;-38
2022/07/15 03:31:56;;;;;;;;;;;;;;;24.70;37.75;100620.47;5063580;28;1186;-38
2022/07/15 03:34:25;;;;;;;;;;;;;;;24.34;37.35;100616.25;5064817;28;1092;-37
2022/07/15 03:36:50;;;;;;;;;;;;;;;24.61;36.63;100613.38;5066486;28;1005;-35
2022/07/15 03:39:15;;;;;;;;;;;;;;;24.78;36.51;100619.59;5068567;28;1163;-38
2022/07/15 03:41:41;;;;;;;;;;;;;;;24.57;37.48;100612.06;5069980;28;1889;-35
2022/07/15 03:47:08;;;;;;;;;;;;;;;23.99;38.18;100623.56;5060460;28;996;-35
2022/07/15 03:49:33;;;;;;;;;;;;;;;23.67;39.33;100619.81;5069603;28;1464;-35
2022/07/15 03:51:59;;;;;;;;;;;;;;;23.70;39.14;100616.78;5056303;28;1095;-36
2022/07/15 03:54:24;;;;;;;;;;;;;;;23.92;38.96;100618.00;5061724;28;1237;-36
2022/07/15 03:56:50;;;;;;;;;;;;;;;24.18;40.09;100617.09;5065647;28;1023;-37
2022/07/15 03:59:15;;;;;;;;;;;;;;;24.47;37.94;100620.31;5064415;28;925;-34
2022/07/15 04:01:41;;;;;;;;;;;;;;;24.40;38.23;100614.75;5059610;28;1894;-34
2022/07/15 04:04:06;;;;;;;;;;;;;;;24.05;40.78;100620.25;5064803;28;1271;-34
2022/07/15 04:06:32;;;;;;;;;;;;;;;24.61;38.13;100615.25;5062953;28;1039;-33
2022/07/15 04:08:58;;;;;;;;;;;;;;;24.55;36.30;100627.53;5062124;28;968;-38
2022/07/15 04:11:23;;;;;;;;;;;;;;;23.63;41.72;100621.97;5068155;28;1016;-34
2022/07/15 04:13:48;;;;;;;;;;;;;;;23.99;39.88;100625.44;5066701;28;964;-37
2022/07/15 04:16:14;;;;;;;;;;;;;;;24.13;40.88;100630.16;5065029;28;1050;-37
2022/07/15 04:18:39;;;;;;;;;;;;;;;23.69;40.94;100626.69;5067352;28;1206;-36
2022/07/15 04:21:04;;;;;;;;;;;;;;;23.89;40.43;100629.09;5073311;28;1971;-37
2022/07/15 04:23:30;;;;;;;;;;;;;;;23.96;41.59;100626.59;5070756;28;1174;-37
2022/07/15 04:25:55;;;;;;;;;;;;;;;24.94;37.70;100631.38;5074053;28;1082;-36
2022/07/15 04:28:21;;;;;;;;;;;;;;;24.52;37.97;100631.41;5068372;28;1214;-37
2022/07/15 04:30:46;;;;;;;;;;;;;;;23.71;41.28;100630.06;5070272;28;1013;-37
2022/07/15 04:33:12;;;;;;;;;;;;;;;24.29;39.00;100631.22;5068818;28;1048;-36
2022/07/15 04:35:38;;;;;;;;;;;;;;;24.56;38.66;100634.56;5075436;28;1007;-34
2022/07/15 04:38:03;;;;;;;;;;;;;;;24.67;39.55;100638.78;5063879;28;922;-35
2022/07/15 04:40:28;;;;;;;;;;;;;;;23.84;40.10;100634.09;5061031;28;1893;-34
2022/07/15 04:42:54;;;;;;;;;;;;;;;23.97;40.26;100634.47;5069077;28;1023;-35
2022/07/15 04:45:19;;;;;;;;;;;;;;;24.15;41.43;100632.66;5068308;28;1024;-34
2022/07/15 04:47:44;;;;;;;;;;;;;;;23.80;39.54;100630.94;5065162;28;1003;-34
2022/07/15 04:52:53;;;;;;;;;;;;;;;24.04;41.57;100634.66;5071794;28;785;-34
2022/07/15 04:55:18;;;;;;;;;;;;;;;23.55;43.34;100633.53;5072678;28;996;-34
2022/07/15 04:57:44;;;;;;;;;;;;;;;24.07;39.69;100631.63;5073222;28;984;-34
2022/07/15 05:00:09;;;;;;;;;;;;;;;24.17;39.98;100636.91;5074996;28;1886;-34
2022/07/15 05:02:35;;;;;;;;;;;;;;;24.98;39.21;100634.56;5074725;28;1174;-35
2022/07/15 05:05:00;;;;;;;;;;;;;;;24.19;38.59;100631.38;5063175;28;957;-35
2022/07/15 05:07:25;;;;;;;;;;;;;;;23.76;40.91;100634.09;5061782;28;1064;-34
2022/07/15 05:09:51;;;;;;;;;;;;;;;24.31;41.63;100634.56;5068312;28;984;-34
2022/07/15 05:12:16;;;;;;;;;;;;;;;24.72;38.73;100633.75;5071274;28;1083;-35
2022/07/15 05:14:41;;;;;;;;;;;;;;;24.75;39.38;100632.53;5069257;28;1003;-34
2022/07/15 05:17:09;;;;;;;;;;;;;;;23.51;42.16;100631.31;5066009;28;1067;-34
2022/07/15 05:19:35;;;;;;;;;;;;;;;23.81;40.29;100629.06;5071320;28;1218;-34
2022/07/15 05:22:00;;;;;;;;;;;;;;;24.07;41.27;100626.25;5074473;28;1971;-35
2022/07/15 05:24:25;;;;;;;;;;;;;;;25.00;38.18;100628.00;5074498;28;1174;-34
2022/07/15 05:26:51;;;;;;;;;;;;;;;24.26;38.58;100628.84;5067541;28;858;-35
2022/07/15 05:29:16;;;;;;;;;;;;;;;23.43;41.40;100630.28;5057617;28;1409;-34
2022/07/15 05:31:41;;;;;;;;;;;;;;;24.21;39.10;100626.66;5060638;28;1186;-35
2022/07/15 05:34:07;;;;;;;;;;;;;;;23.94;39.16;100626.75;5074706;28;1019;-34
2022/07/15 05:36:32;;;;;;;;;;;;;;;23.36;41.78;100630.06;5074801;28;1166;-34
2022/07/15 05:38:57;;;;;;;;;;;;;;;24.24;39.17;100629.00;5056006;28;1024;-34
2022/07/15 05:41:23;;;;;;;;;;;;;;;23.87;39.48;100628.44;5067071;28;1897;-34
2022/07/15 05:43:48;;;;;;;;;;;;;;;23.26;41.67;100632.00;5064311;28;965;-34
2022/07/15 05:46:13;;;;;;;;;;;;;;;24.30;39.37;100628.38;5069925;28;1016;-35
2022/07/15 05:48:39;;;;;;;;;;;;;;;23.86;39.47;100624.03;5069256;28;1024;-34
2022/07/15 05:51:04;;;;;;;;;;;;;;;23.49;41.90;100626.09;5066012;28;1011;-37
2022/07/15 05:53:31;;;;;;;;;;;;;;;24.43;39.54;100619.78;5055977;28;1131;-34
2022/07/15 05:55:57;;;;;;;;;;;;;;;23.75;39.80;100618.97;5070385;28;1112;-36
2022/07/15 05:58:22;;;;;;;;;;;;;;;23.46;41.23;100610.31;5069922;28;1135;-37
2022/07/15 06:00:48;;;;;;;;;;;;;;;24.50;40.06;100613.75;5065521;28;1971;-36
2022/07/15 06:03:13;;;;;;;;;;;;;;;23.62;40.30;100617.63;5072199;28;1002;-36
2022/07/15 06:05:38;;;;;;;;;;;;;;;23.67;40.97;100620.63;5064352;28;955;-36
2022/07/15 06:08:03;;;;;;;;;;;;;;;24.56;40.00;100611.22;5069667;28;1079;-36
2022/07/15 06:10:29;;;;;;;;;;;;;;;23.53;40.65;100619.41;5073694;28;1051;-36
2022/07/15 06:12:54;;;;;;;;;;;;;;;23.95;40.64;100611.47;5070696;28;1185;-36
2022/07/15 06:15:20;;;;;;;;;;;;;;;24.81;39.36;100611.19;5075311;28;1023;-36
2022/07/15 06:17:45;;;;;;;;;;;;;;;23.40;42.48;100614.50;5065453;28;1158;-37
2022/07/15 06:20:11;;;;;;;;;;;;;;;24.09;40.68;100609.97;5076735;28;1911;-36
2022/07/15 06:22:36;;;;;;;;;;;;;;;24.30;39.02;100608.69;5076228;28;1147;-36
2022/07/15 06:25:01;;;;;;;;;;;;;;;23.44;43.15;100607.81;5078214;28;1019;-37
2022/07/15 06:27:28;;;;;;;;;;;;;;;24.61;38.90;100605.31;5071914;28;1043;-37
2022/07/15 06:29:54;;;;;;;;;;;;;;;23.23;43.95;100602.81;5060181;28;1171;-38
2022/07/15 06:32:19;;;;;;;;;;;;;;;24.20;39.97;100600.81;5069107;28;1110;-36
2022/07/15 06:34:44;;;;;;;;;;;;;;;23.70;40.32;100606.91;5078127;28;1146;-35
2022/07/15 06:37:09;;;;;;;;;;;;;;;23.91;40.09;100600.22;5072867;28;1142;-37
2022/07/15 06:39:35;;;;;;;;;;;;;;;24.26;39.21;100593.91;5070891;28;1035;-37
2022/07/15 06:42:00;;;;;;;;;;;;;;;23.31;43.81;100594.81;5061251;28;1902;-37
2022/07/15 06:44:26;;;;;;;;;;;;;;;24.51;39.28;100592.06;5072431;28;1007;-35
2022/07/15 06:46:51;;;;;;;;;;;;;;;23.22;42.81;100590.41;5072566;28;1070;-37
2022/07/15 06:49:17;;;;;;;;;;;;;;;23.90;40.76;100593.19;5072585;28;992;-37
2022/07/15 06:51:42;;;;;;;;;;;;;;;23.76;40.16;100599.16;5075231;28;1083;-37
2022/07/15 06:54:07;;;;;;;;;;;;;;;23.65;41.35;100598.50;5067122;28;1221;-35
2022/07/15 06:56:33;;;;;;;;;;;;;;;24.60;38.78;100595.59;5076806;28;1079;-37
2022/07/15 06:58:58;;;;;;;;;;;;;;;23.12;43.87;100596.72;5074411;28;1162;-36
2022/07/15 07:01:24;;;;;;;;;;;;;;;23.98;39.86;100595.03;5060231;28;1960;-37
2022/07/15 07:03:49;;;;;;;;;;;;;;;23.79;40.20;100597.00;5070954;28;1008;-36
2022/07/15 07:06:14;;;;;;;;;;;;;;;23.62;41.77;100600.66;5064804;28;1036;-35
2022/07/15 07:08:40;;;;;;;;;;;;;;;24.76;38.50;100589.34;5065985;28;1028;-37
2022/07/15 07:11:05;;;;;;;;;;;;;;;23.22;44.07;100601.16;5070307;28;1166;-37
2022/07/15 07:13:30;;;;;;;;;;;;;;;24.38;39.56;100597.94;5074649;28;1055;-36
2022/07/15 07:15:56;;;;;;;;;;;;;;;23.81;40.06;100603.06;5061363;28;1202;-35
2022/07/15 07:18:21;;;;;;;;;;;;;;;23.55;40.95;100601.31;5072011;28;874;-36
2022/07/15 07:20:46;;;;;;;;;;;;;;;24.58;38.24;100601.13;5075403;28;1973;-36
2022/07/15 07:23:12;;;;;;;;;;;;;;;23.06;42.37;100597.38;5076322;28;1087;-36
2022/07/15 07:25:37;;;;;;;;;;;;;;;23.84;40.99;100597.34;5065263;28;937;-35
2022/07/15 07:28:03;;;;;;;;;;;;;;;24.04;39.74;100601.59;5065455;28;962;-37
2022/07/15 07:30:31;;;;;;;;;;;;;;;22.97;45.00;100604.50;5068350;28;950;-36
2022/07/15 07:32:56;;;;;;;;;;;;;;;24.39;40.13;100599.63;5069341;28;1028;-37
2022/07/15 07:35:23;;;;;;;;;;;;;;;23.54;40.58;100593.41;5072186;28;1123;-37
2022/07/15 07:37:48;;;;;;;;;;;;;;;23.63;41.15;100588.91;5068908;28;1019;-36
2022/07/15 07:40:16;;;;;;;;;;;;;;;24.65;38.60;100587.00;5068783;28;1898;-36
2022/07/15 07:42:42;;;;;;;;;;;;;;;23.18;42.64;100592.56;5065228;28;921;-36
2022/07/15 07:45:07;;;;;;;;;;;;;;;23.93;40.52;100589.31;5072154;28;988;-36
2022/07/15 07:47:37;;;;;;;;;;;;;;;24.04;39.55;100583.59;5070183;28;1012;-37
2022/07/15 07:50:02;;;;;;;;;;;;;;;23.09;44.45;100583.63;5073620;28;1058;-37
2022/07/15 07:52:27;;;;;;;;;;;;;;;24.36;39.71;100589.19;5072354;28;1206;-35
2022/07/15 07:54:52;;;;;;;;;;;;;;;23.54;40.32;100580.81;5071814;28;905;-36
2022/07/15 07:57:18;;;;;;;;;;;;;;;23.75;41.42;100587.59;5072633;28;1158;-38
2022/07/15 07:59:43;;;;;;;;;;;;;;;24.85;38.23;100589.31;5065974;28;964;-37
2022/07/15 08:02:08;;;;;;;;;;;;;;;23.32;41.23;100593.78;5061566;28;1943;-36
2022/07/15 08:04:34;;;;;;;;;;;;;;;23.32;43.22;100580.38;5065088;28;972;-39
2022/07/15 08:06:59;;;;;;;;;;;;;;;24.86;39.38;100583.75;5064497;28;902;-38
2022/07/15 08:09:24;;;;;;;;;;;;;;;23.34;41.91;100575.69;5058502;28;1209;-39
2022/07/15 08:11:50;;;;;;;;;;;;;;;23.51;43.02;100574.94;5065878;28;980;-38
2022/07/15 08:14:15;;;;;;;;;;;;;;;25.01;39.65;100575.00;5067139;28;1167;-38
2022/07/15 08:16:42;;;;;;;;;;;;;;;23.31;42.17;100570.66;5068666;28;1024;-38
2022/07/15 08:19:08;;;;;;;;;;;;;;;22.75;47.47;100573.72;5069628;28;870;-38
2022/07/15 08:24:36;;;;;;;;;;;;;;;25.69;37.82;100571.91;5059261;28;921;-37
2022/07/15 08:27:02;;;;;;;;;;;;;;;26.04;37.14;100572.31;5064629;28;952;-37
2022/07/15 08:29:27;;;;;;;;;;;;;;;26.34;35.80;100563.50;5065432;28;985;-37
2022/07/15 08:31:53;;;;;;;;;;;;;;;26.18;35.99;100569.84;5065008;28;953;-37
2022/07/15 08:34:18;;;;;;;;;;;;;;;26.28;36.30;100572.28;5066519;28;1047;-37
2022/07/15 08:36:43;;;;;;;;;;;;;;;26.28;36.56;100570.44;5070473;28;1004;-37
2022/07/15 08:39:08;;;;;;;;;;;;;;;26.68;35.73;100555.94;5058261;28;958;-36
2022/07/15 08:41:35;;;;;;;;;;;;;;;27.02;35.21;100562.69;5062611;28;1901;-38
2022/07/15 08:44:00;;;;;;;;;;;;;;;27.05;34.81;100566.03;5065272;28;1159;-37
2022/07/15 08:46:26;;;;;;;;;;;;;;;26.98;34.93;100564.03;5063384;28;985;-36
2022/07/15 08:48:52;;;;;;;;;;;;;;;27.10;34.65;100558.19;5057986;28;1112;-36
2022/07/15 08:51:18;;;;;;;;;;;;;;;27.16;34.57;100557.44;5065572;28;1095;-37
2022/07/15 08:53:43;;;;;;;;;;;;;;;27.19;34.73;100558.94;5066793;28;1128;-36
2022/07/15 08:56:09;;;;;;;;;;;;;;;27.14;34.36;100563.03;5061098;28;1124;-36
2022/07/15 08:58:38;;;;;;;;;;;;;;;27.18;34.45;100563.50;5062675;28;1031;-39
2022/07/15 09:01:04;;;;;;;;;;;;;;;27.30;34.18;100550.34;5067740;28;1898;-39
2022/07/15 09:03:29;;;;;;;;;;;;;;;27.30;34.06;100558.47;5062175;28;1008;-39
2022/07/15 09:05:55;;;;;;;;;;;;;;;27.26;34.36;100555.28;5058328;28;1012;-40
2022/07/15 09:08:20;;;;;;;;;;;;;;;27.28;34.24;100548.88;5060648;28;1063;-39
2022/07/15 09:10:58;;;;;;;;;;;;;;;27.41;33.59;100548.19;5060310;28;1067;-40
2022/07/15 09:13:28;;;;;;;;;;;;;;;27.50;33.96;100557.84;5066194;28;1063;-40
2022/07/15 09:15:54;;;;;;;;;;;;;;;27.50;33.80;100558.69;5066415;28;1091;-39
2022/07/15 09:18:20;;;;;;;;;;;;;;;27.48;34.04;100551.78;5061959;28;949;-40
2022/07/15 09:20:47;;;;;;;;;;;;;;;27.47;33.69;100552.84;5068697;28;2005;-41
2022/07/15 09:23:17;;;;;;;;;;;;;;;27.55;33.88;100549.16;5062145;28;1001;-40
2022/07/15 09:25:43;;;;;;;;;;;;;;;27.63;33.97;100551.75;5061890;28;1137;-39
2022/07/15 09:28:08;;;;;;;;;;;;;;;27.82;33.40;100550.34;5069741;28;941;-36
2022/07/15 09:33:40;;;;;;;;;;;;;;;27.70;33.66;100552.69;5040029;28;1212;-36
2022/07/15 09:36:05;;;;;;;;;;;;;;;27.54;34.14;100548.34;5070000;28;981;-37
2022/07/15 09:38:32;;;;;;;;;;;;;;;27.67;33.72;100544.09;5062940;28;1036;-37
2022/07/15 09:40:57;;;;;;;;;;;;;;;27.59;33.75;100545.06;5066805;28;1901;-37
2022/07/15 09:43:22;;;;;;;;;;;;;;;27.69;33.43;100542.94;5059413;28;1052;-37
2022/07/15 09:45:55;;;;;;;;;;;;;;;27.74;33.54;100537.75;5068364;28;1008;-36
2022/07/15 09:48:20;;;;;;;;;;;;;;;27.66;33.92;100543.25;5067191;28;1073;-37
2022/07/15 09:50:45;;;;;;;;;;;;;;;27.70;33.48;100536.50;5062275;28;1189;-37
2022/07/15 09:53:11;;;;;;;;;;;;;;;27.62;33.34;100540.13;5068132;28;1044;-36
2022/07/15 09:55:37;;;;;;;;;;;;;;;27.68;33.56;100540.38;5067359;28;1143;-39
2022/07/15 09:58:04;;;;;;;;;;;;;;;27.77;33.47;100541.13;5070406;28;1043;-37
2022/07/15 10:00:30;;;;;;;;;;;;;;;27.72;33.73;100531.75;5072666;28;1905;-36
2022/07/15 10:02:55;;;;;;;;;;;;;;;28.15;32.83;100535.44;5060032;28;1268;-37
2022/07/15 10:05:20;;;;;;;;;;;;;;;28.31;32.63;100533.50;5065824;28;1023;-37
2022/07/15 10:07:46;;;;;;;;;;;;;;;28.48;32.05;100526.75;5065617;28;1103;-37
2022/07/15 10:10:11;;;;;;;;;;;;;;;28.63;31.96;100525.81;5067107;28;1036;-36
2022/07/15 10:12:49;;;;;;;;;;;;;;;28.63;31.88;100533.94;5071885;28;1162;-36
2022/07/15 10:15:33;;;;;;;;;;;;;;;28.70;31.80;100529.41;5065765;28;1017;-37
2022/07/15 10:18:05;;;;;;;;;;;;;;;28.62;31.94;100526.00;5061996;28;1203;-36
2022/07/15 10:20:39;;;;;;;;;;;;;;;28.41;32.52;100525.88;5061185;28;2010;-37
2022/07/15 10:23:12;;;;;;;;;;;;;;;28.44;32.87;100519.25;5071908;28;1136;-36
2022/07/15 10:25:40;;;;;;;;;;;;;;;28.76;31.84;100521.53;5063685;28;1017;-35
2022/07/15 10:28:24;;;;;;;;;;;;;;;28.70;32.03;100525.84;5060024;28;929;-36
2022/07/15 10:31:10;;;;;;;;;;;;;;;28.80;31.99;100520.06;5061254;28;1009;-36
2022/07/15 10:33:35;;;;;;;;;;;;;;;28.85;31.90;100520.31;5071425;28;1327;-36
2022/07/15 10:36:04;;;;;;;;;;;;;;;28.88;31.66;100513.69;5062081;28;1069;-36
2022/07/15 10:38:36;;;;;;;;;;;;;;;28.82;31.62;100513.44;5062265;28;1055;-36
2022/07/15 10:41:04;;;;;;;;;;;;;;;28.93;31.67;100509.31;5066720;28;1894;-36
2022/07/15 10:43:39;;;;;;;;;;;;;;;28.86;31.92;100508.47;5064267;28;989;-36
2022/07/15 10:46:04;;;;;;;;;;;;;;;28.89;32.08;100504.50;5068476;28;1015;-36
2022/07/15 10:48:30;;;;;;;;;;;;;;;28.94;31.55;100507.44;5069589;28;1254;-37
2022/07/15 10:50:56;;;;;;;;;;;;;;;28.93;31.87;100508.47;5062810;28;1547;-36
2022/07/15 10:53:22;;;;;;;;;;;;;;;28.83;31.75;100506.97;5065525;28;1074;-37
2022/07/15 10:55:47;;;;;;;;;;;;;;;28.81;31.97;100494.69;5074660;28;1187;-36
2022/07/15 10:58:13;;;;;;;;;;;;;;;28.79;31.99;100510.28;5067402;28;1099;-36
2022/07/15 11:00:38;;;;;;;;;;;;;;;28.89;31.68;100507.22;5063959;28;1898;-35
2022/07/15 11:03:13;;;;;;;;;;;;;;;28.85;32.03;100502.19;5060082;28;833;-36
2022/07/15 11:05:45;;;;;;;;;;;;;;;28.90;31.84;100503.47;5062712;28;1011;-37
2022/07/15 11:08:29;;;;;;;;;;;;;;;28.88;31.77;100494.72;5068542;28;957;-37
2022/07/15 11:10:55;;;;;;;;;;;;;;;28.85;31.97;100490.53;5060948;28;1146;-36
2022/07/15 11:13:31;;;;;;;;;;;;;;;28.85;31.88;100491.38;5063953;28;1080;-36
2022/07/15 11:15:59;;;;;;;;;;;;;;;28.87;31.89;100491.16;5062375;28;1138;-36
2022/07/15 11:18:25;;;;;;;;;;;;;;;28.82;32.20;100488.22;5068977;28;1079;-36
2022/07/15 11:20:50;;;;;;;;;;;;;;;28.88;32.07;100498.25;5069605;28;1909;-36
2022/07/15 11:23:17;;;;;;;;;;;;;;;28.91;32.06;100486.19;5058417;28;1020;-37
2022/07/15 11:25:43;;;;;;;;;;;;;;;28.91;32.10;100492.44;5064499;28;992;-37
2022/07/15 11:28:08;;;;;;;;;;;;;;;28.94;31.98;100494.75;5065508;28;1135;-36
2022/07/15 11:30:34;;;;;;;;;;;;;;;28.91;31.90;100495.13;5058771;28;1154;-36
2022/07/15 11:33:00;;;;;;;;;;;;;;;29.01;31.99;100493.97;5070248;28;1028;-37
2022/07/15 11:35:27;;;;;;;;;;;;;;;29.00;32.23;100497.69;5058286;28;917;-36
2022/07/15 11:37:57;;;;;;;;;;;;;;;29.05;31.97;100490.66;5063950;28;989;-36
2022/07/15 11:45:54;;;;;;;;;;;;;;;28.98;32.55;100488.97;5060181;28;950;-36
2022/07/15 11:48:20;;;;;;;;;;;;;;;29.00;32.54;100487.72;5064239;28;1012;-36
2022/07/15 11:50:49;;;;;;;;;;;;;;;29.00;32.58;100492.28;5068389;28;1175;-36
2022/07/15 11:53:15;;;;;;;;;;;;;;;29.06;32.38;100486.06;5066422;28;1127;-36
2022/07/15 11:55:56;;;;;;;;;;;;;;;29.11;32.27;100483.59;5062429;28;1226;-37
2022/07/15 11:58:31;;;;;;;;;;;;;;;29.07;32.43;100485.88;5065116;28;1043;-36
2022/07/15 12:00:57;;;;;;;;;;;;;;;29.03;32.80;100484.59;5064271;28;1918;-37
2022/07/15 12:03:23;;;;;;;;;;;;;;;29.06;32.79;100483.38;5062495;28;981;-37
2022/07/15 12:06:04;;;;;;;;;;;;;;;29.09;32.58;100482.97;5059725;28;992;-37
2022/07/15 12:08:35;;;;;;;;;;;;;;;29.12;32.50;100487.13;5063340;28;788;-37
2022/07/15 12:11:00;;;;;;;;;;;;;;;29.10;32.41;100476.50;5067280;28;1199;-37
2022/07/15 12:13:25;;;;;;;;;;;;;;;29.15;32.15;100481.28;5063646;28;989;-37
2022/07/15 12:15:50;;;;;;;;;;;;;;;29.11;32.47;100475.47;5061171;28;1127;-37
2022/07/15 12:18:16;;;;;;;;;;;;;;;28.90;32.94;100481.78;5069042;28;992;-37
2022/07/15 12:20:41;;;;;;;;;;;;;;;28.89;32.92;100474.72;5062583;28;1918;-36
2022/07/15 12:23:07;;;;;;;;;;;;;;;28.88;32.88;100473.06;5069975;28;1112;-36
2022/07/15 12:25:33;;;;;;;;;;;;;;;28.93;32.79;100470.56;5061880;28;989;-36
2022/07/15 12:27:58;;;;;;;;;;;;;;;28.93;32.77;100468.69;5058852;28;937;-36
2022/07/15 12:30:33;;;;;;;;;;;;;;;28.96;32.73;100475.59;5064613;28;985;-36
2022/07/15 12:33:17;;;;;;;;;;;;;;;28.85;32.80;100467.00;5068560;28;1022;-36
2022/07/15 12:35:43;;;;;;;;;;;;;;;28.99;32.66;100479.78;5057423;28;1032;-37
2022/07/15 12:38:08;;;;;;;;;;;;;;;29.05;32.49;100470.84;5063310;28;1000;-35
2022/07/15 12:40:33;;;;;;;;;;;;;;;29.11;32.56;100472.75;5064936;28;1905;-36
2022/07/15 12:43:00;;;;;;;;;;;;;;;29.08;32.60;100479.41;5063087;28;993;-36
2022/07/15 12:45:35;;;;;;;;;;;;;;;29.16;32.54;100475.66;5056108;28;1161;-37
2022/07/15 12:48:04;;;;;;;;;;;;;;;29.15;32.38;100463.19;5060316;28;1079;-36
2022/07/15 12:50:30;;;;;;;;;;;;;;;29.04;32.62;100469.19;5067517;28;1183;-35
2022/07/15 12:52:55;;;;;;;;;;;;;;;29.05;32.87;100474.41;5063926;28;981;-37
2022/07/15 12:55:22;;;;;;;;;;;;;;;29.04;32.84;100480.88;5061753;28;1174;-37
2022/07/15 12:57:47;;;;;;;;;;;;;;;28.64;33.48;100481.50;5068305;28;880;-37
2022/07/15 13:00:13;;;;;;;;;;;;;;;28.61;33.96;100481.91;5062880;28;1973;-35